createdAt,value
2018-06-04T00:00:00.296Z,98419.91
2018-06-04T00:02:29.946Z,98417.27
2018-06-04T00:04:59.096Z,98411.17
2018-06-04T00:07:28.255Z,98410.41
2018-06-04T00:09:57.824Z,98403.98
2018-06-04T00:12:26.974Z,98406.16
2018-06-04T00:14:56.116Z,98407.27
2018-06-04T00:17:25.260Z,98401.88
2018-06-04T00:19:54.428Z,98406.52
2018-06-04T00:22:23.643Z,98401.41
2018-06-04T00:24:52.801Z,98396.31
2018-06-04T00:27:21.982Z,98396.42
2018-06-04T00:29:51.132Z,98394.58
2018-06-04T00:32:20.285Z,98394.05
2018-06-04T00:34:49.435Z,98390.86
2018-06-04T00:37:18.584Z,98394.36
2018-06-04T00:39:47.741Z,98388.47
2018-06-04T00:42:16.877Z,98387.67
2018-06-04T00:44:46.038Z,98378.55
2018-06-04T00:47:15.204Z,98383.55
2018-06-04T00:49:44.368Z,98376.64
2018-06-04T00:52:13.562Z,98376.69
2018-06-04T00:54:42.733Z,98374.59
2018-06-04T00:57:11.867Z,98370.54
2018-06-04T00:59:41.067Z,98368.39
2018-06-04T01:02:10.242Z,98365.43
2018-06-04T01:04:39.391Z,98364.94
2018-06-04T01:07:08.737Z,98365.26
2018-06-04T01:09:38.150Z,98362.03
2018-06-04T01:12:07.355Z,98363.95
2018-06-04T01:14:36.572Z,98359.66
2018-06-04T01:17:05.840Z,98357.23
2018-06-04T01:19:34.979Z,98352.20
2018-06-04T01:22:04.187Z,98349.78
2018-06-04T01:24:33.362Z,98354.18
2018-06-04T01:27:02.515Z,98354.81
2018-06-04T01:29:31.736Z,98355.66
2018-06-04T01:32:00.902Z,98354.36
2018-06-04T01:34:30.042Z,98354.68
2018-06-04T01:36:59.210Z,98340.17
2018-06-04T01:39:28.353Z,98339.64
2018-06-04T01:41:57.497Z,98340.75
2018-06-04T01:44:26.646Z,98336.45
2018-06-04T01:46:55.814Z,98335.64
2018-06-04T01:49:24.962Z,98337.03
2018-06-04T01:51:54.125Z,98324.50
2018-06-04T01:54:23.279Z,98333.67
2018-06-04T01:56:52.443Z,98271.34
2018-06-04T01:59:21.580Z,98332.69
2018-06-04T02:01:50.810Z,98335.69
2018-06-04T02:04:20.008Z,98335.69
2018-06-04T02:06:49.145Z,98340.00
2018-06-04T02:09:18.300Z,98338.46
2018-06-04T02:11:47.470Z,98333.89
2018-06-04T02:14:16.616Z,98323.47
2018-06-04T02:16:45.777Z,98331.28
2018-06-04T02:19:16.299Z,98326.48
2018-06-04T02:21:45.450Z,98330.83
2018-06-04T02:24:14.614Z,98327.06
2018-06-04T02:26:43.783Z,98322.52
2018-06-04T02:29:12.952Z,98318.83
2018-06-04T02:31:42.755Z,98316.41
2018-06-04T02:34:11.917Z,98314.56
2018-06-04T02:36:41.156Z,98317.58
2018-06-04T02:39:10.632Z,98315.50
2018-06-04T02:41:39.769Z,98313.66
2018-06-04T02:44:08.927Z,98320.12
2018-06-04T02:46:38.561Z,98320.42
2018-06-04T02:49:07.970Z,98313.73
2018-06-04T02:51:37.113Z,98312.39
2018-06-04T02:54:06.299Z,98304.35
2018-06-04T02:56:35.467Z,98310.01
2018-06-04T02:59:04.684Z,98304.62
2018-06-04T03:01:33.825Z,98314.58
2018-06-04T03:04:03.025Z,98308.89
2018-06-04T03:06:32.167Z,98313.23
2018-06-04T03:09:01.305Z,98309.96
2018-06-04T03:11:30.494Z,98308.92
2018-06-04T03:13:59.650Z,98309.77
2018-06-04T03:16:28.935Z,98298.79
2018-06-04T03:18:58.101Z,98307.36
2018-06-04T03:21:27.248Z,98302.02
2018-06-04T03:23:56.425Z,98308.25
2018-06-04T03:26:25.580Z,98300.13
2018-06-04T03:28:54.763Z,98300.63
2018-06-04T03:31:23.976Z,98302.25
2018-06-04T03:33:53.128Z,98303.85
2018-06-04T03:36:22.293Z,98298.97
2018-06-04T03:38:51.433Z,98297.58
2018-06-04T03:41:20.658Z,98299.93
2018-06-04T03:43:49.819Z,98301.00
2018-06-04T03:46:18.994Z,98293.92
2018-06-04T03:48:48.219Z,98293.92
2018-06-04T03:51:17.383Z,98290.07
2018-06-04T03:53:46.543Z,98294.03
2018-06-04T03:56:15.721Z,98296.91
2018-06-04T03:58:44.857Z,98292.23
2018-06-04T04:01:14.040Z,98296.77
2018-06-04T04:03:43.194Z,98287.20
2018-06-04T04:06:12.355Z,98288.68
2018-06-04T04:08:41.511Z,98287.69
2018-06-04T04:11:10.683Z,98289.97
2018-06-04T04:13:39.819Z,98286.30
2018-06-04T04:16:09.049Z,98287.41
2018-06-04T04:18:38.210Z,98288.36
2018-06-04T04:21:07.561Z,98283.36
2018-06-04T04:23:36.715Z,98286.48
2018-06-04T04:26:05.886Z,98286.63
2018-06-04T04:28:35.086Z,98283.47
2018-06-04T04:31:04.329Z,98282.47
2018-06-04T04:33:33.481Z,98283.17
2018-06-04T04:36:02.623Z,98285.75
2018-06-04T04:38:31.758Z,98290.93
2018-06-04T04:41:00.938Z,98296.47
2018-06-04T04:43:30.096Z,98287.17
2018-06-04T04:45:59.261Z,98287.31
2018-06-04T04:48:28.403Z,98296.39
2018-06-04T04:50:58.390Z,98298.28
2018-06-04T04:53:27.570Z,98301.09
2018-06-04T04:55:56.696Z,98288.81
2018-06-04T04:58:25.882Z,98292.20
2018-06-04T05:00:55.113Z,98297.22
2018-06-04T05:03:24.238Z,98287.34
2018-06-04T05:05:53.387Z,98287.16
2018-06-04T05:08:22.632Z,98286.80
2018-06-04T05:10:51.819Z,98284.71
2018-06-04T05:13:21.037Z,98284.96
2018-06-04T05:15:50.171Z,98289.72
2018-06-04T05:18:19.431Z,98282.25
2018-06-04T05:20:48.589Z,98285.48
2018-06-04T05:23:17.751Z,98283.05
2018-06-04T05:25:47.083Z,98278.84
2018-06-04T05:28:16.243Z,98273.16
2018-06-04T05:30:45.376Z,98278.89
2018-06-04T05:33:14.926Z,98284.55
2018-06-04T05:35:44.125Z,98273.15
2018-06-04T05:38:13.319Z,98271.75
2018-06-04T05:40:42.462Z,98278.84
2018-06-04T05:43:11.663Z,98277.94
2018-06-04T05:45:40.829Z,98278.10
2018-06-04T05:48:10.268Z,98273.26
2018-06-04T05:50:39.429Z,98275.41
2018-06-04T05:53:08.832Z,98272.36
2018-06-04T05:55:38.849Z,98270.94
2018-06-04T05:58:07.998Z,98269.56
2018-06-04T06:00:37.247Z,98265.27
2018-06-04T06:03:06.477Z,98267.63
2018-06-04T06:05:35.622Z,98269.36
2018-06-04T06:08:04.994Z,98178.41
2018-06-04T06:10:34.291Z,98266.92
2018-06-04T06:13:03.515Z,98264.92
2018-06-04T06:15:32.717Z,98267.64
2018-06-04T06:18:01.891Z,98271.13
2018-06-04T06:20:31.098Z,98266.94
2018-06-04T06:23:00.326Z,98264.80
2018-06-04T06:25:29.548Z,98270.56
2018-06-04T06:27:58.617Z,98268.61
2018-06-04T06:30:27.758Z,98264.13
2018-06-04T06:32:56.883Z,98265.22
2018-06-04T06:35:26.081Z,98260.76
2018-06-04T06:37:55.382Z,98250.70
2018-06-04T06:40:25.299Z,98259.53
2018-06-04T06:42:54.623Z,98256.77
2018-06-04T06:45:23.910Z,98254.47
2018-06-04T06:47:54.728Z,98248.54
2018-06-04T06:50:23.984Z,98252.06
2018-06-04T06:52:53.197Z,98248.09
2018-06-04T06:55:22.410Z,98247.13
2018-06-04T06:57:51.559Z,98248.09
2018-06-04T07:00:20.796Z,98248.78
2018-06-04T07:02:50.030Z,98241.05
2018-06-04T07:05:19.219Z,98245.95
2018-06-04T07:07:48.941Z,98244.75
2018-06-04T07:10:18.165Z,98239.89
2018-06-04T07:12:47.374Z,98232.66
2018-06-04T07:15:16.616Z,98231.53
2018-06-04T07:17:45.864Z,98236.42
2018-06-04T07:20:15.013Z,98236.11
2018-06-04T07:22:44.165Z,98237.48
2018-06-04T07:25:13.449Z,98236.21
2018-06-04T07:27:42.695Z,98239.26
2018-06-04T07:30:11.927Z,98235.05
2018-06-04T07:32:41.089Z,98238.77
2018-06-04T07:35:10.344Z,98237.17
2018-06-04T07:37:39.591Z,98227.39
2018-06-04T07:40:09.306Z,98230.20
2018-06-04T07:42:38.603Z,98229.33
2018-06-04T07:45:08.243Z,98221.56
2018-06-04T07:47:37.484Z,98223.39
2018-06-04T07:50:06.814Z,98214.69
2018-06-04T07:52:36.022Z,98219.20
2018-06-04T07:55:05.356Z,98213.47
2018-06-04T07:57:35.351Z,98211.78
2018-06-04T08:00:05.145Z,98210.34
2018-06-04T08:02:34.311Z,98205.93
2018-06-04T08:05:03.622Z,98202.81
2018-06-04T08:07:32.812Z,98201.77
2018-06-04T08:10:02.122Z,98204.17
2018-06-04T08:12:31.266Z,98204.81
2018-06-04T08:15:00.432Z,98200.44
2018-06-04T08:17:29.590Z,98201.52
2018-06-04T08:19:58.734Z,98206.69
2018-06-04T08:22:27.914Z,98206.13
2018-06-04T08:24:57.203Z,98201.65
2018-06-04T08:27:26.406Z,98204.47
2018-06-04T08:29:55.619Z,98204.47
2018-06-04T08:32:24.847Z,98205.69
2018-06-04T08:34:53.991Z,98204.34
2018-06-04T08:37:23.174Z,98197.34
2018-06-04T08:39:52.359Z,98195.99
2018-06-04T08:42:22.128Z,98195.66
2018-06-04T08:44:51.285Z,98197.98
2018-06-04T08:47:20.463Z,98201.73
2018-06-04T08:49:49.707Z,98197.17
2018-06-04T08:52:18.840Z,98192.14
2018-06-04T08:54:48.118Z,98195.95
2018-06-04T08:57:17.303Z,98191.05
2018-06-04T08:59:46.595Z,98188.47
2018-06-04T09:02:15.855Z,98182.62
2018-06-04T09:04:45.032Z,98176.83
2018-06-04T09:07:14.254Z,98171.52
2018-06-04T09:09:43.494Z,98178.86
2018-06-04T09:12:12.765Z,98168.55
2018-06-04T09:14:42.525Z,98161.23
2018-06-04T09:17:11.685Z,98170.86
2018-06-04T09:19:41.730Z,98172.23
2018-06-04T09:22:10.965Z,98168.77
2018-06-04T09:24:40.791Z,98157.23
2018-06-04T09:27:10.121Z,98159.17
2018-06-04T09:29:39.289Z,98159.64
2018-06-04T09:32:08.435Z,98161.20
2018-06-04T09:34:37.636Z,98156.63
2018-06-04T09:37:06.973Z,98160.03
2018-06-04T09:39:36.163Z,98156.94
2018-06-04T09:42:05.394Z,98151.52
2018-06-04T09:44:34.523Z,98152.27
2018-06-04T09:47:03.938Z,98138.70
2018-06-04T09:49:33.248Z,98144.99
2018-06-04T09:52:02.433Z,98145.84
2018-06-04T09:54:31.646Z,98143.14
2018-06-04T09:57:00.810Z,98142.25
2018-06-04T09:59:29.978Z,98137.37
2018-06-04T10:01:59.150Z,98137.98
2018-06-04T10:04:28.293Z,98137.52
2018-06-04T10:06:57.448Z,98133.23
2018-06-04T10:09:26.650Z,98129.34
2018-06-04T10:11:55.798Z,98122.41
2018-06-04T10:14:24.972Z,98122.55
2018-06-04T10:16:54.157Z,98122.96
2018-06-04T10:19:23.417Z,98108.41
2018-06-04T10:21:52.605Z,98107.59
2018-06-04T10:24:21.766Z,98110.41
2018-06-04T10:26:51.033Z,98109.52
2018-06-04T10:29:20.232Z,98098.34
2018-06-04T10:31:49.391Z,98103.41
2018-06-04T10:34:18.555Z,98094.27
2018-06-04T10:36:47.748Z,98100.37
2018-06-04T10:39:17.019Z,98090.40
2018-06-04T10:41:46.202Z,98090.97
2018-06-04T10:44:15.360Z,98083.49
2018-06-04T10:46:44.529Z,98086.02
2018-06-04T10:49:13.709Z,98078.02
2018-06-04T10:51:42.864Z,98078.34
2018-06-04T10:54:12.297Z,98066.38
2018-06-04T10:56:41.500Z,98059.88
2018-06-04T10:59:10.661Z,98053.66
2018-06-04T11:01:39.813Z,98055.27
2018-06-04T11:04:09.026Z,98048.86
2018-06-04T11:06:38.214Z,98051.66
2018-06-04T11:09:09.332Z,98038.02
2018-06-04T11:11:38.477Z,98028.78
2018-06-04T11:14:07.715Z,98028.17
2018-06-04T11:16:36.995Z,98024.10
2018-06-04T11:19:06.375Z,98020.73
2018-06-04T11:21:35.607Z,98024.70
2018-06-04T11:24:04.773Z,98018.91
2018-06-04T11:26:33.966Z,98019.50
2018-06-04T11:29:03.230Z,98017.32
2018-06-04T11:31:32.403Z,98006.35
2018-06-04T11:34:01.601Z,98006.74
2018-06-04T11:36:30.732Z,97999.69
2018-06-04T11:38:59.982Z,97993.98
2018-06-04T11:41:29.217Z,97993.80
2018-06-04T11:43:58.425Z,97991.02
2018-06-04T11:46:28.385Z,97994.96
2018-06-04T11:48:58.065Z,98000.65
2018-06-04T11:51:27.378Z,97989.84
2018-06-04T11:53:56.816Z,97987.09
2018-06-04T11:56:26.077Z,97987.87
2018-06-04T11:58:55.191Z,97980.59
2018-06-04T12:01:24.349Z,97979.62
2018-06-04T12:03:53.515Z,97977.08
2018-06-04T12:06:23.335Z,97972.17
2018-06-04T12:08:52.542Z,97970.20
2018-06-04T12:11:21.673Z,97968.44
2018-06-04T12:13:50.891Z,97966.47
2018-06-04T12:16:20.037Z,97965.84
2018-06-04T12:18:49.210Z,97957.30
2018-06-04T12:21:18.428Z,97958.50
2018-06-04T12:23:48.636Z,97957.13
2018-06-04T12:26:18.643Z,97944.44
2018-06-04T12:28:48.086Z,97942.28
2018-06-04T12:31:17.318Z,97943.47
2018-06-04T12:33:46.452Z,97945.61
2018-06-04T12:36:15.717Z,97941.88
2018-06-04T12:38:44.885Z,97947.60
2018-06-04T12:41:14.065Z,97947.58
2018-06-04T12:43:43.241Z,97942.27
2018-06-04T12:46:12.400Z,97940.33
2018-06-04T12:48:41.563Z,97936.17
2018-06-04T12:51:10.852Z,97942.50
2018-06-04T12:53:40.057Z,97942.29
2018-06-04T12:56:09.407Z,97941.09
2018-06-04T12:58:38.558Z,97940.91
2018-06-04T13:01:07.736Z,97936.37
2018-06-04T13:03:36.850Z,97934.03
2018-06-04T13:06:06.081Z,97930.89
2018-06-04T13:08:35.256Z,97923.22
2018-06-04T13:11:04.418Z,97928.92
2018-06-04T13:13:33.870Z,97925.30
2018-06-04T13:16:03.088Z,97929.23
2018-06-04T13:18:32.237Z,97931.16
2018-06-04T13:21:01.397Z,97928.00
2018-06-04T13:23:30.542Z,97926.64
2018-06-04T13:25:59.716Z,97925.64
2018-06-04T13:28:28.871Z,97930.75
2018-06-04T13:30:57.967Z,97928.41
2018-06-04T13:33:27.117Z,97921.13
2018-06-04T13:35:56.217Z,97927.01
2018-06-04T13:38:25.393Z,97923.44
2018-06-04T13:40:54.535Z,97922.88
2018-06-04T13:43:23.685Z,97912.26
2018-06-04T13:45:52.935Z,97912.66
2018-06-04T13:48:23.539Z,97904.05
2018-06-04T13:50:52.670Z,97912.91
2018-06-04T13:53:21.836Z,97894.99
2018-06-04T13:55:50.981Z,97888.52
2018-06-04T13:58:20.133Z,97892.61
2018-06-04T14:00:49.303Z,97883.98
2018-06-04T14:03:18.468Z,97877.11
2018-06-04T14:05:47.768Z,97859.69
2018-06-04T14:08:16.928Z,97866.91
2018-06-04T14:10:46.065Z,97869.84
2018-06-04T14:13:15.301Z,97862.39
2018-06-04T14:15:44.472Z,97861.54
2018-06-04T14:18:13.606Z,97858.09
2018-06-04T14:20:42.712Z,97853.40
2018-06-04T14:23:11.856Z,97844.34
2018-06-04T14:25:41.095Z,97846.90
2018-06-04T14:28:10.264Z,97845.16
2018-06-04T14:30:39.454Z,97840.44
2018-06-04T14:33:08.728Z,97844.77
2018-06-04T14:35:37.837Z,97837.67
2018-06-04T14:38:07.009Z,97832.17
2018-06-04T14:40:36.291Z,97832.28
2018-06-04T14:43:05.460Z,97828.15
2018-06-04T14:45:34.698Z,97832.91
2018-06-04T14:48:03.817Z,97831.92
2018-06-04T14:50:33.078Z,97829.75
2018-06-04T14:53:02.711Z,97829.25
2018-06-04T14:55:32.013Z,97820.34
2018-06-04T14:58:01.186Z,97814.59
2018-06-04T15:00:30.334Z,97806.34
2018-06-04T15:02:59.497Z,97806.92
2018-06-04T15:05:28.819Z,97799.63
2018-06-04T15:07:58.145Z,97799.64
2018-06-04T15:10:27.334Z,97800.42
2018-06-04T15:12:56.502Z,97797.30
2018-06-04T15:15:25.771Z,97795.54
2018-06-04T15:17:55.005Z,97810.22
2018-06-04T15:20:24.277Z,97812.77
2018-06-04T15:22:53.475Z,97801.95
2018-06-04T15:25:22.760Z,97805.14
2018-06-04T15:27:51.890Z,97806.75
2018-06-04T15:30:21.090Z,97804.17
2018-06-04T15:32:50.389Z,97796.73
2018-06-04T15:35:19.616Z,97799.87
2018-06-04T15:37:48.895Z,97795.38
2018-06-04T15:40:18.033Z,97792.72
2018-06-04T15:42:47.220Z,97796.66
2018-06-04T15:45:16.378Z,97798.44
2018-06-04T15:47:45.651Z,97794.59
2018-06-04T15:50:15.185Z,97794.09
2018-06-04T15:52:44.358Z,97789.20
2018-06-04T15:55:13.478Z,97784.92
2018-06-04T15:57:42.882Z,97788.48
2018-06-04T16:00:12.205Z,97787.31
2018-06-04T16:02:41.419Z,97790.67
2018-06-04T16:05:11.066Z,97789.06
2018-06-04T16:07:40.258Z,97778.86
2018-06-04T16:10:10.052Z,97774.13
2018-06-04T16:12:39.213Z,97770.97
2018-06-04T16:15:08.674Z,97766.25
2018-06-04T16:17:38.208Z,97771.92
2018-06-04T16:20:07.398Z,97767.03
2018-06-04T16:22:36.557Z,97762.14
2018-06-04T16:25:05.889Z,97767.08
2018-06-04T16:27:35.242Z,97765.29
2018-06-04T16:30:04.522Z,97771.19
2018-06-04T16:32:33.688Z,97764.68
2018-06-04T16:35:02.925Z,97769.39
2018-06-04T16:37:32.220Z,97769.59
2018-06-04T16:40:01.346Z,97764.48
2018-06-04T16:42:30.532Z,97771.14
2018-06-04T16:44:59.708Z,97766.25
2018-06-04T16:47:28.965Z,97764.45
2018-06-04T16:49:58.106Z,97769.11
2018-06-04T16:52:27.306Z,97767.08
2018-06-04T16:54:56.488Z,97765.73
2018-06-04T16:57:25.652Z,97759.19
2018-06-04T16:59:54.849Z,97761.76
2018-06-04T17:02:24.043Z,97761.09
2018-06-04T17:04:53.141Z,97762.28
2018-06-04T17:07:22.318Z,97762.70
2018-06-04T17:09:51.446Z,97764.88
2018-06-04T17:12:20.610Z,97764.79
2018-06-04T17:14:50.260Z,97758.88
2018-06-04T17:17:19.443Z,97765.28
2018-06-04T17:19:48.615Z,97761.59
2018-06-04T17:22:17.814Z,97771.31
2018-06-04T17:24:47.054Z,97776.01
2018-06-04T17:27:16.314Z,97780.88
2018-06-04T17:29:45.469Z,97778.47
2018-06-04T17:32:14.637Z,97782.77
2018-06-04T17:34:43.840Z,97786.05
2018-06-04T17:37:13.492Z,97790.73
2018-06-04T17:39:42.687Z,97795.16
2018-06-04T17:42:11.937Z,97798.22
2018-06-04T17:44:41.337Z,97798.00
2018-06-04T17:47:10.646Z,97796.38
2018-06-04T17:49:40.490Z,97798.67
2018-06-04T17:52:09.707Z,97801.02
2018-06-04T17:54:38.953Z,97799.47
2018-06-04T17:57:08.291Z,97796.06
2018-06-04T17:59:37.857Z,97788.33
2018-06-04T18:02:07.578Z,97798.02
2018-06-04T18:04:36.712Z,97796.34
2018-06-04T18:07:07.597Z,97799.48
2018-06-04T18:09:36.756Z,97796.39
2018-06-04T18:12:06.056Z,97797.00
2018-06-04T18:14:36.815Z,97792.20
2018-06-04T18:17:06.393Z,97800.49
2018-06-04T18:19:36.466Z,97800.50
2018-06-04T18:22:05.900Z,97808.33
2018-06-04T18:24:35.201Z,97800.83
2018-06-04T18:27:04.429Z,97808.39
2018-06-04T18:29:33.849Z,97804.61
2018-06-04T18:32:03.048Z,97808.08
2018-06-04T18:34:32.256Z,97807.95
2018-06-04T18:37:01.463Z,97811.30
2018-06-04T18:39:30.639Z,97805.87
2018-06-04T18:41:59.777Z,97807.06
2018-06-04T18:44:28.987Z,97807.80
2018-06-04T18:46:58.296Z,97805.67
2018-06-04T18:49:27.606Z,97812.00
2018-06-04T18:51:56.763Z,97801.50
2018-06-04T18:54:25.897Z,97812.14
2018-06-04T18:56:55.086Z,97811.52
2018-06-04T18:59:24.330Z,97812.34
2018-06-04T19:01:53.516Z,97810.20
2018-06-04T19:04:22.721Z,97815.00
2018-06-04T19:06:51.965Z,97819.21
2018-06-04T19:09:21.197Z,97817.98
2018-06-04T19:11:50.321Z,97823.27
2018-06-04T19:14:19.498Z,97823.83
2018-06-04T19:16:48.639Z,97828.91
2018-06-04T19:19:17.776Z,97831.98
2018-06-04T19:21:47.161Z,97832.53
2018-06-04T19:24:16.313Z,97829.32
2018-06-04T19:26:45.454Z,97823.05
2018-06-04T19:29:14.649Z,97821.86
2018-06-04T19:31:45.137Z,97826.12
2018-06-04T19:34:14.333Z,97825.05
2018-06-04T19:36:43.477Z,97826.19
2018-06-04T19:39:12.670Z,97824.55
2018-06-04T19:41:41.832Z,97820.42
2018-06-04T19:44:11.184Z,97821.94
2018-06-04T19:46:40.705Z,97827.40
2018-06-04T19:49:09.841Z,97825.27
2018-06-04T19:51:39.139Z,97828.48
2018-06-04T19:54:08.237Z,97829.75
2018-06-04T19:56:37.386Z,97824.92
2018-06-04T19:59:06.537Z,97824.81
2018-06-04T20:01:36.169Z,97829.02
2018-06-04T20:04:05.484Z,97835.79
2018-06-04T20:06:34.609Z,97790.58
2018-06-04T20:09:04.040Z,97839.67
2018-06-04T20:11:33.174Z,97846.83
2018-06-04T20:14:02.338Z,97846.59
2018-06-04T20:16:31.570Z,97848.75
2018-06-04T20:19:00.698Z,97849.67
2018-06-04T20:21:30.163Z,97854.66
2018-06-04T20:23:59.405Z,97856.92
2018-06-04T20:26:28.529Z,97859.07
2018-06-04T20:28:57.853Z,97861.10
2018-06-04T20:31:27.042Z,97863.38
2018-06-04T20:33:56.176Z,97863.70
2018-06-04T20:36:25.347Z,97863.60
2018-06-04T20:38:54.481Z,97864.72
2018-06-04T20:41:23.621Z,97865.97
2018-06-04T20:43:52.734Z,97860.41
2018-06-04T20:46:21.922Z,97855.06
2018-06-04T20:48:51.098Z,97856.88
2018-06-04T20:51:20.239Z,97857.56
2018-06-04T20:53:49.360Z,97855.28
2018-06-04T20:56:18.503Z,97856.62
2018-06-04T20:58:47.604Z,97855.48
2018-06-04T21:01:16.740Z,97859.43
2018-06-04T21:03:46.277Z,97865.63
2018-06-04T21:06:15.406Z,97862.45
2018-06-04T21:08:45.155Z,97857.35
2018-06-04T21:11:14.285Z,97868.53
2018-06-04T21:13:43.429Z,97865.79
2018-06-04T21:16:12.569Z,97863.05
2018-06-04T21:18:41.684Z,97863.39
2018-06-04T21:21:10.820Z,97864.86
2018-06-04T21:23:40.005Z,97868.23
2018-06-04T21:26:09.133Z,97865.14
2018-06-04T21:28:38.274Z,97871.55
2018-06-04T21:31:07.737Z,97876.62
2018-06-04T21:33:36.878Z,97872.17
2018-06-04T21:36:06.116Z,97870.12
2018-06-04T21:38:35.232Z,97866.72
2018-06-04T21:41:04.395Z,97865.47
2018-06-04T21:43:33.518Z,97864.00
2018-06-04T21:46:02.745Z,97865.67
2018-06-04T21:48:31.897Z,97864.27
2018-06-04T21:51:01.034Z,97856.24
2018-06-04T21:53:30.312Z,97859.16
2018-06-04T21:55:59.810Z,97864.78
2018-06-04T21:58:28.970Z,97862.13
2018-06-04T22:00:58.118Z,97855.66
2018-06-04T22:03:27.236Z,97856.06
2018-06-04T22:05:56.380Z,97855.61
2018-06-04T22:08:25.568Z,97859.42
2018-06-04T22:10:54.669Z,97856.26
2018-06-04T22:13:23.799Z,97862.78
2018-06-04T22:15:53.368Z,97860.27
2018-06-04T22:18:22.720Z,97858.41
2018-06-04T22:20:51.909Z,97860.13
2018-06-04T22:23:21.021Z,97855.11
2018-06-04T22:25:50.158Z,97854.41
2018-06-04T22:28:19.252Z,97855.30
2018-06-04T22:30:48.387Z,97845.37
2018-06-04T22:33:17.497Z,97850.29
2018-06-04T22:35:46.633Z,97846.52
2018-06-04T22:38:15.777Z,97847.53
2018-06-04T22:40:44.886Z,97852.97
2018-06-04T22:43:14.025Z,97849.75
2018-06-04T22:45:43.155Z,97849.43
2018-06-04T22:48:12.263Z,97847.86
2018-06-04T22:50:41.379Z,97840.86
2018-06-04T22:53:10.554Z,97845.09
2018-06-04T22:55:39.709Z,97844.05
2018-06-04T22:58:08.861Z,97849.08
2018-06-04T23:00:37.976Z,97846.30
2018-06-04T23:03:07.274Z,97849.56
2018-06-04T23:05:36.406Z,97849.19
2018-06-04T23:08:05.558Z,97853.94
2018-06-04T23:10:34.714Z,97854.91
2018-06-04T23:13:03.841Z,97857.78
2018-06-04T23:15:32.945Z,97852.52
2018-06-04T23:18:02.092Z,97857.63
2018-06-04T23:20:31.212Z,97853.03
2018-06-04T23:23:00.400Z,97850.95
2018-06-04T23:25:29.533Z,97856.36
2018-06-04T23:27:58.649Z,97861.77
2018-06-04T23:30:27.813Z,97865.58
2018-06-04T23:32:56.921Z,97868.91
2018-06-04T23:35:26.090Z,97861.44
2018-06-04T23:37:55.225Z,97858.90
2018-06-04T23:40:24.481Z,97859.31
2018-06-04T23:42:53.626Z,97862.39
2018-06-04T23:45:22.782Z,97861.13
2018-06-04T23:47:52.120Z,97858.25
2018-06-04T23:50:21.272Z,97858.89
2018-06-04T23:52:50.889Z,97860.02
2018-06-04T23:55:20.061Z,97865.42
2018-06-04T23:57:49.158Z,97858.75
